createdAt,value
2018-04-06T00:01:52.815Z,97436.70
2018-04-06T00:04:20.274Z,97441.03
2018-04-06T00:06:47.752Z,97431.58
2018-04-06T00:09:15.183Z,97433.70
2018-04-06T00:11:42.612Z,97428.96
2018-04-06T00:14:10.253Z,97431.20
2018-04-06T00:16:37.646Z,97426.05
2018-04-06T00:19:05.038Z,97422.30
2018-04-06T00:21:32.537Z,97425.09
2018-04-06T00:23:59.987Z,97421.50
2018-04-06T00:26:27.398Z,97422.80
2018-04-06T00:28:54.797Z,97422.96
2018-04-06T00:31:22.229Z,97422.96
2018-04-06T00:33:49.704Z,97420.38
2018-04-06T00:36:17.128Z,97420.21
2018-04-06T00:38:44.613Z,97416.87
2018-04-06T00:41:12.049Z,97420.45
2018-04-06T00:43:39.511Z,97422.17
2018-04-06T00:46:06.951Z,97414.31
2018-04-06T00:48:34.383Z,97418.92
2018-04-06T00:51:01.965Z,97419.09
2018-04-06T00:53:41.122Z,97418.13
2018-04-06T00:56:08.586Z,97420.20
2018-04-06T00:58:36.186Z,97413.56
2018-04-06T01:01:03.643Z,97423.25
2018-04-06T01:03:31.070Z,97421.06
2018-04-06T01:05:58.531Z,97420.69
2018-04-06T01:08:26.036Z,97412.44
2018-04-06T01:10:53.485Z,97413.92
2018-04-06T01:13:20.966Z,97410.11
2018-04-06T01:15:48.417Z,97416.09
2018-04-06T01:18:15.861Z,97412.65
2018-04-06T01:20:43.274Z,97410.61
2018-04-06T01:23:10.693Z,97409.25
2018-04-06T01:25:38.131Z,97414.65
2018-04-06T01:28:05.540Z,97409.81
2018-04-06T01:30:33.052Z,97410.24
2018-04-06T01:33:00.493Z,97408.53
2018-04-06T01:35:28.042Z,97401.55
2018-04-06T01:37:55.475Z,97409.95
2018-04-06T01:40:22.893Z,97409.70
2018-04-06T01:42:50.301Z,97404.54
2018-04-06T01:45:17.707Z,97407.27
2018-04-06T01:47:45.134Z,97405.29
2018-04-06T01:50:12.584Z,97406.11
2018-04-06T01:52:40.043Z,97398.75
2018-04-06T01:55:07.520Z,97400.12
2018-04-06T01:57:34.943Z,97399.34
2018-04-06T02:00:02.399Z,97394.22
2018-04-06T02:02:30.706Z,97406.52
2018-04-06T02:04:58.321Z,97408.16
2018-04-06T02:07:25.739Z,97407.43
2018-04-06T02:09:53.164Z,97405.14
2018-04-06T02:12:20.552Z,97403.78
2018-04-06T02:14:48.022Z,97408.23
2018-04-06T02:17:15.447Z,97404.20
2018-04-06T02:19:43.053Z,97410.00
2018-04-06T02:22:10.510Z,97408.89
2018-04-06T02:24:37.945Z,97410.19
2018-04-06T02:27:05.362Z,97418.05
2018-04-06T02:29:33.047Z,97412.30
2018-04-06T02:32:00.481Z,97409.48
2018-04-06T02:34:27.907Z,97417.20
2018-04-06T02:36:55.330Z,97411.45
2018-04-06T02:39:22.763Z,97411.23
2018-04-06T02:41:50.210Z,97408.53
2018-04-06T02:44:17.674Z,97406.45
2018-04-06T02:46:45.126Z,97409.20
2018-04-06T02:49:12.656Z,97401.52
2018-04-06T02:51:40.144Z,97403.76
2018-04-06T02:54:07.566Z,97403.91
2018-04-06T02:56:35.008Z,97400.98
2018-04-06T02:59:02.434Z,97403.91
2018-04-06T03:01:29.884Z,97404.59
2018-04-06T03:03:57.330Z,97406.94
2018-04-06T03:06:24.755Z,97404.84
2018-04-06T03:08:52.211Z,97405.76
2018-04-06T03:11:19.620Z,97405.26
2018-04-06T03:13:47.088Z,97408.51
2018-04-06T03:16:14.474Z,97404.59
2018-04-06T03:18:41.900Z,97403.81
2018-04-06T03:21:09.353Z,97407.94
2018-04-06T03:23:36.736Z,97403.39
2018-04-06T03:26:04.171Z,97399.69
2018-04-06T03:28:32.334Z,97400.63
2018-04-06T03:30:59.812Z,97397.64
2018-04-06T03:33:27.208Z,97391.60
2018-04-06T03:35:54.665Z,97401.16
2018-04-06T03:38:22.102Z,97396.88
2018-04-06T03:40:49.555Z,97395.80
2018-04-06T03:43:16.993Z,97396.54
2018-04-06T03:45:44.415Z,97394.36
2018-04-06T03:48:11.816Z,97396.76
2018-04-06T03:50:39.260Z,97389.58
2018-04-06T03:53:06.743Z,97393.79
2018-04-06T03:55:34.124Z,97389.97
2018-04-06T03:58:01.532Z,97396.50
2018-04-06T04:00:28.998Z,97401.70
2018-04-06T04:02:56.396Z,97399.71
2018-04-06T04:05:23.960Z,97396.16
2018-04-06T04:07:51.354Z,97397.58
2018-04-06T04:10:19.605Z,97391.99
2018-04-06T04:12:47.029Z,97391.94
2018-04-06T04:15:14.473Z,97386.50
2018-04-06T04:17:41.970Z,97393.45
2018-04-06T04:20:09.358Z,97389.96
2018-04-06T04:22:36.759Z,97389.81
2018-04-06T04:25:04.190Z,97390.69
2018-04-06T04:27:32.622Z,97393.08
2018-04-06T04:30:00.058Z,97385.52
2018-04-06T04:32:27.537Z,97386.22
2018-04-06T04:34:54.930Z,97387.37
2018-04-06T04:37:22.336Z,97394.20
2018-04-06T04:39:49.783Z,97383.88
2018-04-06T04:42:17.284Z,97388.16
2018-04-06T04:44:44.744Z,97393.31
2018-04-06T04:47:12.139Z,97390.59
2018-04-06T04:49:39.573Z,97392.59
2018-04-06T04:52:06.988Z,97386.16
2018-04-06T04:54:34.494Z,97397.27
2018-04-06T04:57:02.102Z,97393.95
2018-04-06T04:59:29.661Z,97394.00
2018-04-06T05:01:57.071Z,97397.50
2018-04-06T05:04:24.459Z,97395.47
2018-04-06T05:06:51.990Z,97399.82
2018-04-06T05:09:19.384Z,97400.63
2018-04-06T05:11:46.826Z,97405.03
2018-04-06T05:14:14.274Z,97400.06
2018-04-06T05:16:41.705Z,97407.27
2018-04-06T05:19:09.099Z,97405.34
2018-04-06T05:21:36.496Z,97403.51
2018-04-06T05:24:03.904Z,97402.16
2018-04-06T05:26:31.504Z,97400.80
2018-04-06T05:28:58.942Z,97393.53
2018-04-06T05:31:26.937Z,97400.97
2018-04-06T05:33:54.390Z,97400.55
2018-04-06T05:36:21.800Z,97408.67
2018-04-06T05:38:49.323Z,97411.03
2018-04-06T05:41:16.758Z,97415.86
2018-04-06T05:43:44.295Z,97420.75
2018-04-06T05:46:11.670Z,97421.39
2018-04-06T05:48:39.106Z,97418.48
2018-04-06T05:51:06.884Z,97419.77
2018-04-06T05:53:34.338Z,97421.71
2018-04-06T05:56:01.749Z,97424.02
2018-04-06T05:58:29.217Z,97430.34
2018-04-06T06:00:56.655Z,97421.11
2018-04-06T06:03:24.105Z,97428.17
2018-04-06T06:05:51.559Z,97424.41
2018-04-06T06:08:18.947Z,97419.45
2018-04-06T06:10:46.430Z,97428.86
2018-04-06T06:13:13.854Z,97425.27
2018-04-06T06:15:41.293Z,97428.33
2018-04-06T06:18:08.814Z,97427.67
2018-04-06T06:20:36.278Z,97419.07
2018-04-06T06:23:03.724Z,97416.18
2018-04-06T06:25:31.216Z,97413.43
2018-04-06T06:27:58.669Z,97403.56
2018-04-06T06:30:26.112Z,97407.99
2018-04-06T06:32:53.573Z,97415.48
2018-04-06T06:35:21.001Z,97401.90
2018-04-06T06:37:48.475Z,97411.47
2018-04-06T06:40:15.961Z,97406.83
2018-04-06T06:42:43.395Z,97404.68
2018-04-06T06:45:10.851Z,97409.87
2018-04-06T06:47:38.280Z,97406.32
2018-04-06T06:50:05.721Z,97400.56
2018-04-06T06:52:33.215Z,97403.91
2018-04-06T06:55:00.632Z,97406.00
2018-04-06T06:57:28.055Z,97414.01
2018-04-06T06:59:55.498Z,97406.32
2018-04-06T07:02:23.067Z,97407.36
2018-04-06T07:04:50.456Z,97403.45
2018-04-06T07:07:17.950Z,97401.21
2018-04-06T07:09:45.393Z,97406.85
2018-04-06T07:12:12.786Z,97411.27
2018-04-06T07:14:40.238Z,97411.15
2018-04-06T07:17:07.674Z,97409.84
2018-04-06T07:19:35.109Z,97406.97
2018-04-06T07:22:02.563Z,97415.63
2018-04-06T07:24:30.041Z,97405.39
2018-04-06T07:26:57.515Z,97406.34
2018-04-06T07:29:25.008Z,97399.77
2018-04-06T07:31:52.563Z,97398.67
2018-04-06T07:34:19.993Z,97398.86
2018-04-06T07:36:47.438Z,97393.97
2018-04-06T07:39:14.868Z,97389.63
2018-04-06T07:41:42.297Z,97393.34
2018-04-06T07:44:09.727Z,97394.19
2018-04-06T07:46:37.951Z,97386.19
2018-04-06T07:49:05.394Z,97386.59
2018-04-06T07:51:33.214Z,97390.31
2018-04-06T07:54:00.901Z,97391.41
2018-04-06T07:56:28.430Z,97389.33
2018-04-06T07:58:55.904Z,97376.28
2018-04-06T08:01:23.333Z,97373.48
2018-04-06T08:03:50.741Z,97374.84
2018-04-06T08:06:18.165Z,97381.54
2018-04-06T08:08:45.730Z,97378.16
2018-04-06T08:11:13.200Z,97391.80
2018-04-06T08:13:40.619Z,97389.86
2018-04-06T08:16:08.215Z,97383.46
2018-04-06T08:18:35.817Z,97382.16
2018-04-06T08:21:03.269Z,97382.58
2018-04-06T08:23:30.692Z,97380.92
2018-04-06T08:25:58.151Z,97378.19
2018-04-06T08:28:25.594Z,97390.94
2018-04-06T08:30:53.031Z,97383.08
2018-04-06T08:33:20.445Z,97388.22
2018-04-06T08:35:47.856Z,97383.47
2018-04-06T08:38:15.316Z,97382.45
2018-04-06T08:40:42.707Z,97386.50
2018-04-06T08:43:10.161Z,97374.52
2018-04-06T08:45:37.652Z,97377.24
2018-04-06T08:48:05.986Z,97372.10
2018-04-06T08:50:33.586Z,97370.76
2018-04-06T08:53:01.071Z,97373.42
2018-04-06T08:55:28.503Z,97372.06
2018-04-06T08:57:55.895Z,97374.06
2018-04-06T09:00:23.367Z,97369.36
2018-04-06T09:02:50.849Z,97373.17
2018-04-06T09:05:18.350Z,97365.91
2018-04-06T09:07:45.823Z,97368.02
2018-04-06T09:10:13.422Z,97366.82
2018-04-06T09:12:40.941Z,97370.52
2018-04-06T09:15:08.456Z,97366.27
2018-04-06T09:17:35.864Z,97359.25
2018-04-06T09:20:03.278Z,97360.39
2018-04-06T09:22:31.517Z,97357.84
2018-04-06T09:24:58.918Z,97356.58
2018-04-06T09:27:26.430Z,97353.66
2018-04-06T09:29:54.049Z,97356.58
2018-04-06T09:32:22.207Z,97352.47
2018-04-06T09:34:49.615Z,97355.26
2018-04-06T09:37:17.064Z,97352.09
2018-04-06T09:39:45.232Z,97350.09
2018-04-06T09:42:12.681Z,97350.49
2018-04-06T09:44:40.126Z,97345.68
2018-04-06T09:47:07.545Z,97349.80
2018-04-06T09:49:35.085Z,97342.61
2018-04-06T09:52:02.496Z,97340.22
2018-04-06T09:54:29.932Z,97333.78
2018-04-06T09:56:57.404Z,97332.06
2018-04-06T09:59:24.861Z,97329.27
2018-04-06T10:01:56.439Z,97328.18
2018-04-06T10:04:23.841Z,97323.34
2018-04-06T10:06:51.227Z,97315.10
2018-04-06T10:09:18.673Z,97310.59
2018-04-06T10:11:46.205Z,97307.67
2018-04-06T10:14:13.652Z,97307.47
2018-04-06T10:16:41.096Z,97307.28
2018-04-06T10:19:08.553Z,97307.75
2018-04-06T10:21:36.032Z,97306.31
2018-04-06T10:24:03.659Z,97302.66
2018-04-06T10:26:31.114Z,97298.95
2018-04-06T10:28:58.574Z,97299.91
2018-04-06T10:31:26.025Z,97302.30
2018-04-06T10:33:53.470Z,97298.30
2018-04-06T10:36:20.919Z,97297.58
2018-04-06T10:38:48.407Z,97296.89
2018-04-06T10:41:15.873Z,97291.89
2018-04-06T10:43:43.276Z,97292.80
2018-04-06T10:46:11.643Z,97291.38
2018-04-06T10:48:39.086Z,97286.38
2018-04-06T10:51:06.560Z,97285.81
2018-04-06T10:53:34.089Z,97286.08
2018-04-06T10:56:01.557Z,97282.52
2018-04-06T10:58:29.023Z,97273.98
2018-04-06T11:00:56.463Z,97271.27
2018-04-06T11:03:23.919Z,97273.30
2018-04-06T11:05:51.381Z,97263.53
2018-04-06T11:08:18.898Z,97262.51
2018-04-06T11:10:46.351Z,97262.27
2018-04-06T11:13:13.770Z,97261.78
2018-04-06T11:15:41.325Z,97262.92
2018-04-06T11:18:09.405Z,97256.78
2018-04-06T11:20:36.907Z,97251.61
2018-04-06T11:23:04.336Z,97248.55
2018-04-06T11:25:31.744Z,97249.52
2018-04-06T11:27:59.129Z,97245.48
2018-04-06T11:30:26.525Z,97243.02
2018-04-06T11:32:54.086Z,97243.22
2018-04-06T11:35:21.568Z,97243.41
2018-04-06T11:37:49.040Z,97226.59
2018-04-06T11:40:16.505Z,97235.80
2018-04-06T11:42:43.987Z,97235.67
2018-04-06T11:45:11.458Z,97229.30
2018-04-06T11:47:39.048Z,97227.26
2018-04-06T11:50:06.441Z,97223.00
2018-04-06T11:52:34.588Z,97222.89
2018-04-06T11:55:02.078Z,97220.58
2018-04-06T11:57:29.485Z,97219.47
2018-04-06T11:59:56.868Z,97223.70
2018-04-06T12:02:24.406Z,97209.31
2018-04-06T12:04:51.852Z,97207.03
2018-04-06T12:07:19.252Z,97206.38
2018-04-06T12:09:46.757Z,97206.45
2018-04-06T12:12:14.149Z,97197.97
2018-04-06T12:14:41.629Z,97196.78
2018-04-06T12:17:09.098Z,97191.55
2018-04-06T12:19:36.638Z,97186.65
2018-04-06T12:22:04.098Z,97187.42
2018-04-06T12:24:31.570Z,97187.92
2018-04-06T12:26:58.970Z,97180.39
2018-04-06T12:29:26.410Z,97180.09
2018-04-06T12:31:53.851Z,97171.98
2018-04-06T12:34:21.352Z,97174.33
2018-04-06T12:36:48.807Z,97173.65
2018-04-06T12:39:16.229Z,97163.09
2018-04-06T12:44:16.359Z,97162.15
2018-04-06T12:46:43.791Z,97150.51
2018-04-06T12:49:11.393Z,97147.17
2018-04-06T12:51:38.857Z,97144.73
2018-04-06T12:54:06.287Z,97139.42
2018-04-06T12:56:33.676Z,97138.20
2018-04-06T12:59:01.064Z,97131.66
2018-04-06T13:01:28.505Z,97127.91
2018-04-06T13:03:56.031Z,97123.32
2018-04-06T13:06:23.496Z,97119.06
2018-04-06T13:08:50.988Z,97112.25
2018-04-06T13:11:18.431Z,97112.37
2018-04-06T13:13:45.844Z,97110.22
2018-04-06T13:16:13.355Z,97108.05
2018-04-06T13:18:41.056Z,97095.09
2018-04-06T13:21:08.450Z,97094.56
2018-04-06T13:23:35.861Z,97097.86
2018-04-06T13:26:03.408Z,97090.95
2018-04-06T13:28:30.878Z,97086.42
2018-04-06T13:30:58.314Z,97081.81
2018-04-06T13:33:25.725Z,97075.67
2018-04-06T13:35:53.286Z,97081.54
2018-04-06T13:38:20.842Z,97073.05
2018-04-06T13:40:48.247Z,97065.76
2018-04-06T13:43:15.736Z,97059.66
2018-04-06T13:45:43.341Z,97057.55
2018-04-06T13:48:10.772Z,97055.95
2018-04-06T13:50:38.201Z,97055.78
2018-04-06T13:53:05.605Z,97047.20
2018-04-06T13:55:33.161Z,97038.91
2018-04-06T13:58:00.625Z,97042.53
2018-04-06T14:00:28.157Z,97040.02
2018-04-06T14:02:55.755Z,97032.91
2018-04-06T14:05:23.142Z,97029.69
2018-04-06T14:07:50.627Z,97029.52
2018-04-06T14:10:18.049Z,97023.41
2018-04-06T14:12:45.515Z,97019.98
2018-04-06T14:15:13.049Z,97015.83
2018-04-06T14:17:40.516Z,97012.40
2018-04-06T14:20:08.047Z,97009.86
2018-04-06T14:22:35.500Z,97013.05
2018-04-06T14:25:03.167Z,97008.94
2018-04-06T14:27:30.610Z,97005.06
2018-04-06T14:29:58.047Z,96999.95
2018-04-06T14:32:25.513Z,97000.06
2018-04-06T14:34:52.988Z,96999.70
2018-04-06T14:37:20.449Z,96991.92
2018-04-06T14:39:47.918Z,96990.66
2018-04-06T14:42:15.316Z,96991.36
2018-04-06T14:44:42.999Z,96993.51
2018-04-06T14:47:10.435Z,96985.13
2018-04-06T14:49:37.929Z,96987.30
2018-04-06T14:52:05.335Z,96986.16
2018-04-06T14:54:32.739Z,96981.77
2018-04-06T14:57:00.230Z,96980.58
2018-04-06T14:59:27.651Z,96975.08
2018-04-06T15:01:55.065Z,96973.83
2018-04-06T15:04:22.549Z,96969.88
2018-04-06T15:06:50.028Z,96963.55
2018-04-06T15:09:17.486Z,96956.59
2018-04-06T15:11:44.917Z,96958.25
2018-04-06T15:14:12.353Z,96954.61
2018-04-06T15:16:39.759Z,96955.88
2018-04-06T15:19:07.345Z,96953.03
2018-04-06T15:21:34.870Z,96950.55
2018-04-06T15:24:02.435Z,96949.36
2018-04-06T15:26:29.834Z,96948.59
2018-04-06T15:28:57.287Z,96940.84
2018-04-06T15:31:25.443Z,96935.63
2018-04-06T15:33:52.946Z,96935.56
2018-04-06T15:36:20.398Z,96927.74
2018-04-06T15:38:47.788Z,96929.80
2018-04-06T15:41:15.222Z,96923.73
2018-04-06T15:43:42.649Z,96927.96
2018-04-06T15:46:10.085Z,96928.16
2018-04-06T15:48:37.767Z,96917.39
2018-04-06T15:51:05.334Z,96919.41
2018-04-06T15:53:32.759Z,96916.24
2018-04-06T15:56:00.224Z,96914.05
2018-04-06T15:58:28.623Z,96909.49
2018-04-06T16:00:56.106Z,96907.19
2018-04-06T16:03:23.544Z,96909.33
2018-04-06T16:05:51.015Z,96908.78
2018-04-06T16:08:18.540Z,96905.30
2018-04-06T16:10:45.965Z,96902.20
2018-04-06T16:13:13.368Z,96905.19
2018-04-06T16:15:40.782Z,96899.01
2018-04-06T16:18:08.181Z,96897.18
2018-04-06T16:20:35.656Z,96897.13
2018-04-06T16:23:03.122Z,96888.09
2018-04-06T16:25:30.559Z,96891.77
2018-04-06T16:27:57.990Z,96888.20
2018-04-06T16:30:25.443Z,96893.80
2018-04-06T16:32:52.867Z,96894.03
2018-04-06T16:35:20.346Z,96887.77
2018-04-06T16:37:48.682Z,96890.11
2018-04-06T16:40:16.106Z,96889.36
2018-04-06T16:42:43.606Z,96881.13
2018-04-06T16:45:11.046Z,96881.83
2018-04-06T16:47:38.481Z,96879.52
2018-04-06T16:50:06.128Z,96877.95
2018-04-06T16:52:34.293Z,96879.53
2018-04-06T16:55:01.722Z,96882.29
2018-04-06T16:57:29.119Z,96882.45
2018-04-06T16:59:56.596Z,96884.52
2018-04-06T17:02:24.000Z,96881.52
2018-04-06T17:04:51.435Z,96883.34
2018-04-06T17:07:18.853Z,96876.05
2018-04-06T17:09:46.318Z,96877.52
2018-04-06T17:12:13.739Z,96875.86
2018-04-06T17:14:41.128Z,96882.42
2018-04-06T17:17:08.554Z,96883.96
2018-04-06T17:19:36.025Z,96880.70
2018-04-06T17:22:03.683Z,96879.89
2018-04-06T17:24:31.153Z,96882.59
2018-04-06T17:26:58.585Z,96883.59
2018-04-06T17:29:26.483Z,96882.80
2018-04-06T17:31:53.927Z,96883.02
2018-04-06T17:34:21.726Z,96880.38
2018-04-06T17:36:49.152Z,96881.45
2018-04-06T17:39:16.605Z,96881.50
2018-04-06T17:41:44.044Z,96873.77
2018-04-06T17:44:11.504Z,96878.45
2018-04-06T17:46:39.666Z,96879.48
2018-04-06T17:49:07.111Z,96881.72
2018-04-06T17:51:34.675Z,96888.05
2018-04-06T17:54:02.146Z,96881.89
2018-04-06T17:56:29.598Z,96874.98
2018-04-06T17:58:57.222Z,96879.70
2018-04-06T18:01:24.877Z,96878.45
2018-04-06T18:03:52.301Z,96878.66
2018-04-06T18:06:19.877Z,96878.77
2018-04-06T18:08:47.567Z,96874.19
2018-04-06T18:11:14.965Z,96877.09
2018-04-06T18:13:42.388Z,96890.30
2018-04-06T18:16:09.813Z,96892.34
2018-04-06T18:18:37.220Z,96891.91
2018-04-06T18:21:04.683Z,96898.18
2018-04-06T18:23:32.057Z,96893.64
2018-04-06T18:25:59.559Z,96899.09
2018-04-06T18:28:27.063Z,96901.83
2018-04-06T18:30:54.479Z,96903.56
2018-04-06T18:33:21.965Z,96906.61
2018-04-06T18:35:49.484Z,96907.15
2018-04-06T18:38:16.954Z,96912.98
2018-04-06T18:40:44.395Z,96907.39
2018-04-06T18:43:11.856Z,96910.56
2018-04-06T18:45:39.333Z,96913.80
2018-04-06T18:48:06.810Z,96919.35
2018-04-06T18:50:34.303Z,96920.15
2018-04-06T18:53:01.972Z,96921.62
2018-04-06T18:55:29.399Z,96931.38
2018-04-06T18:57:56.970Z,96923.47
2018-04-06T19:00:24.429Z,96928.45
2018-04-06T19:02:52.015Z,96926.15
2018-04-06T19:05:19.465Z,96927.09
2018-04-06T19:07:46.913Z,96940.52
2018-04-06T19:10:14.397Z,96942.85
2018-04-06T19:12:41.840Z,96941.20
2018-04-06T19:15:09.236Z,96944.02
2018-04-06T19:17:36.665Z,96941.57
2018-04-06T19:20:04.117Z,96940.89
2018-04-06T19:22:31.594Z,96942.66
2018-04-06T19:24:59.100Z,96941.60
2018-04-06T19:27:26.646Z,96943.97
2018-04-06T19:29:54.085Z,96941.29
2018-04-06T19:32:21.555Z,96946.58
2018-04-06T19:34:49.163Z,96946.13
2018-04-06T19:37:16.577Z,96946.97
2018-04-06T19:39:44.050Z,96939.18
2018-04-06T19:42:11.585Z,96940.01
2018-04-06T19:44:39.262Z,96938.05
2018-04-06T19:47:06.656Z,96938.55
2018-04-06T19:49:34.273Z,96946.28
2018-04-06T19:52:04.829Z,96948.91
2018-04-06T19:54:32.267Z,96941.73
2018-04-06T19:56:59.745Z,96938.95
2018-04-06T19:59:27.180Z,96940.45
2018-04-06T20:01:54.702Z,96932.64
2018-04-06T20:04:22.285Z,96930.97
2018-04-06T20:06:49.769Z,96932.23
2018-04-06T20:09:17.245Z,96941.30
2018-04-06T20:11:44.664Z,96928.55
2018-04-06T20:14:12.155Z,96927.36
2018-04-06T20:16:39.723Z,96927.13
2018-04-06T20:19:07.853Z,96922.56
2018-04-06T20:21:35.264Z,96926.98
2018-04-06T20:24:02.811Z,96918.20
2018-04-06T20:26:30.356Z,96924.66
2018-04-06T20:28:57.826Z,96926.02
2018-04-06T20:31:25.310Z,96926.52
2018-04-06T20:33:53.309Z,96922.69
2018-04-06T20:36:20.728Z,96922.45
2018-04-06T20:38:48.201Z,96924.45
2018-04-06T20:41:15.623Z,96927.68
2018-04-06T20:43:43.040Z,96930.91
2018-04-06T20:46:10.639Z,96928.17
2018-04-06T20:48:38.089Z,96928.17
2018-04-06T20:51:05.556Z,96932.46
2018-04-06T20:53:33.094Z,96929.77
2018-04-06T20:56:00.542Z,96925.81
2018-04-06T20:58:27.978Z,96928.28
2018-04-06T21:00:55.394Z,96921.59
2018-04-06T21:03:22.871Z,96918.45
2018-04-06T21:05:50.352Z,96923.77
2018-04-06T21:08:17.760Z,96920.55
2018-04-06T21:10:45.228Z,96923.45
2018-04-06T21:13:12.705Z,96930.37
2018-04-06T21:15:40.163Z,96926.08
2018-04-06T21:18:07.649Z,96937.59
2018-04-06T21:20:35.152Z,96932.57
2018-04-06T21:23:02.567Z,96931.94
2018-04-06T21:25:30.070Z,96937.84
2018-04-06T21:27:57.456Z,96933.52
2018-04-06T21:30:24.902Z,96931.47
2018-04-06T21:32:52.382Z,96933.94
2018-04-06T21:35:19.791Z,96934.89
2018-04-06T21:37:47.230Z,96926.69
2018-04-06T21:40:14.616Z,96928.10
2018-04-06T21:42:42.154Z,96928.60
2018-04-06T21:45:09.620Z,96925.95
2018-04-06T21:47:37.065Z,96926.16
2018-04-06T21:50:04.766Z,96933.27
2018-04-06T21:52:32.770Z,96930.08
2018-04-06T21:55:00.195Z,96925.64
2018-04-06T21:57:27.620Z,96928.02
2018-04-06T21:59:55.107Z,96932.47
2018-04-06T22:02:22.537Z,96937.47
2018-04-06T22:04:49.976Z,96930.81
2018-04-06T22:07:17.507Z,96927.70
2018-04-06T22:09:44.930Z,96921.87
2018-04-06T22:12:12.407Z,96934.02
2018-04-06T22:14:39.832Z,96927.03
2018-04-06T22:17:07.239Z,96929.81
2018-04-06T22:19:34.863Z,96920.47
2018-04-06T22:22:02.301Z,96922.05
2018-04-06T22:24:30.553Z,96920.71
2018-04-06T22:26:58.040Z,96929.71
2018-04-06T22:29:25.499Z,96923.25
2018-04-06T22:31:52.888Z,96934.30
2018-04-06T22:34:20.435Z,96934.20
2018-04-06T22:36:47.945Z,96934.94
2018-04-06T22:39:15.348Z,96937.80
2018-04-06T22:41:42.809Z,96930.69
2018-04-06T22:44:10.245Z,96923.03
2018-04-06T22:46:37.720Z,96927.20
2018-04-06T22:49:05.953Z,96921.47
2018-04-06T22:51:33.431Z,96931.45
2018-04-06T22:54:00.900Z,96926.39
2018-04-06T22:56:28.313Z,96929.47
2018-04-06T22:58:55.746Z,96934.33
2018-04-06T23:01:23.659Z,96932.59
2018-04-06T23:03:51.130Z,96932.44
2018-04-06T23:06:18.554Z,96934.35
2018-04-06T23:08:46.020Z,96935.21
2018-04-06T23:11:13.460Z,96940.95
2018-04-06T23:13:40.864Z,96936.16
2018-04-06T23:16:08.379Z,96939.11
2018-04-06T23:18:35.881Z,96943.27
2018-04-06T23:21:03.320Z,96937.85
2018-04-06T23:23:30.784Z,96937.11
2018-04-06T23:25:58.246Z,96940.34
2018-04-06T23:28:25.758Z,96939.59
2018-04-06T23:30:53.194Z,96943.05
2018-04-06T23:33:20.703Z,96936.23
2018-04-06T23:35:48.178Z,96938.59
2018-04-06T23:38:15.746Z,96941.83
2018-04-06T23:40:43.359Z,96945.11
2018-04-06T23:43:10.774Z,96940.12
2018-04-06T23:45:38.654Z,96941.29
2018-04-06T23:48:06.102Z,96939.09
2018-04-06T23:50:33.578Z,96942.59
2018-04-06T23:53:00.982Z,96943.95
2018-04-06T23:55:28.536Z,96943.63
2018-04-06T23:57:55.970Z,96941.36
